sensor_id;sensor_type;location;lat;lon;timestamp;temperature;humidity
27978;DHT22;15314;49.248;6.968;2022-10-31T00:00:57;12.80;98.50
27978;DHT22;15314;49.248;6.968;2022-10-31T00:01:57;12.80;98.60
27978;DHT22;15314;49.248;6.968;2022-10-31T00:02:58;12.80;98.60
27978;DHT22;15314;49.248;6.968;2022-10-31T00:03:59;12.80;98.60
27978;DHT22;15314;49.248;6.968;2022-10-31T00:04:59;12.80;98.50
27978;DHT22;15314;49.248;6.968;2022-10-31T00:06:00;12.80;98.60
27978;DHT22;15314;49.248;6.968;2022-10-31T00:07:02;12.80;98.80
27978;DHT22;15314;49.248;6.968;2022-10-31T00:08:03;12.80;99.00
27978;DHT22;15314;49.248;6.968;2022-10-31T00:09:04;12.80;99.10
27978;DHT22;15314;49.248;6.968;2022-10-31T00:10:05;12.70;99.10
27978;DHT22;15314;49.248;6.968;2022-10-31T00:11:10;12.70;99.10
27978;DHT22;15314;49.248;6.968;2022-10-31T00:12:11;12.80;99.10
27978;DHT22;15314;49.248;6.968;2022-10-31T00:13:13;12.70;99.10
27978;DHT22;15314;49.248;6.968;2022-10-31T00:14:14;12.80;98.90
27978;DHT22;15314;49.248;6.968;2022-10-31T00:15:14;12.80;98.80
27978;DHT22;15314;49.248;6.968;2022-10-31T00:16:17;12.80;98.60
27978;DHT22;15314;49.248;6.968;2022-10-31T00:17:18;12.90;98.60
27978;DHT22;15314;49.248;6.968;2022-10-31T00:18:19;12.90;98.40
27978;DHT22;15314;49.248;6.968;2022-10-31T00:19:19;12.90;98.30
27978;DHT22;15314;49.248;6.968;2022-10-31T00:20:20;12.90;98.40
27978;DHT22;15314;49.248;6.968;2022-10-31T00:21:21;13.00;98.30
27978;DHT22;15314;49.248;6.968;2022-10-31T00:22:22;13.00;98.20
27978;DHT22;15314;49.248;6.968;2022-10-31T00:23:22;13.00;98.50
27978;DHT22;15314;49.248;6.968;2022-10-31T00:24:23;12.90;98.40
27978;DHT22;15314;49.248;6.968;2022-10-31T00:25:24;12.90;98.70
27978;DHT22;15314;49.248;6.968;2022-10-31T00:26:26;12.90;98.80
27978;DHT22;15314;49.248;6.968;2022-10-31T00:27:27;12.80;98.90
27978;DHT22;15314;49.248;6.968;2022-10-31T00:28:27;12.70;99.30
27978;DHT22;15314;49.248;6.968;2022-10-31T00:29:30;12.80;98.80
27978;DHT22;15314;49.248;6.968;2022-10-31T00:30:31;12.70;99.00
27978;DHT22;15314;49.248;6.968;2022-10-31T00:31:32;12.80;99.10
27978;DHT22;15314;49.248;6.968;2022-10-31T00:32:32;12.70;99.10
27978;DHT22;15314;49.248;6.968;2022-10-31T00:33:34;12.70;99.30
27978;DHT22;15314;49.248;6.968;2022-10-31T00:34:35;12.70;99.30
27978;DHT22;15314;49.248;6.968;2022-10-31T00:35:36;12.70;99.30
27978;DHT22;15314;49.248;6.968;2022-10-31T00:36:36;12.60;99.20
27978;DHT22;15314;49.248;6.968;2022-10-31T00:37:37;12.70;99.20
27978;DHT22;15314;49.248;6.968;2022-10-31T00:38:37;12.60;99.20
27978;DHT22;15314;49.248;6.968;2022-10-31T00:39:38;12.60;99.10
27978;DHT22;15314;49.248;6.968;2022-10-31T00:40:38;12.60;99.20
27978;DHT22;15314;49.248;6.968;2022-10-31T00:41:39;12.60;99.00
27978;DHT22;15314;49.248;6.968;2022-10-31T00:42:40;12.60;98.90
27978;DHT22;15314;49.248;6.968;2022-10-31T00:43:42;12.70;98.80
27978;DHT22;15314;49.248;6.968;2022-10-31T00:44:43;12.70;98.70
27978;DHT22;15314;49.248;6.968;2022-10-31T00:45:44;12.70;98.70
27978;DHT22;15314;49.248;6.968;2022-10-31T00:46:44;12.70;98.80
27978;DHT22;15314;49.248;6.968;2022-10-31T00:47:45;12.60;98.90
27978;DHT22;15314;49.248;6.968;2022-10-31T00:48:45;12.60;98.90
27978;DHT22;15314;49.248;6.968;2022-10-31T00:49:46;12.70;98.80
27978;DHT22;15314;49.248;6.968;2022-10-31T00:50:46;12.80;98.70
27978;DHT22;15314;49.248;6.968;2022-10-31T00:51:47;12.70;99.10
27978;DHT22;15314;49.248;6.968;2022-10-31T00:52:48;12.60;99.20
27978;DHT22;15314;49.248;6.968;2022-10-31T00:53:48;12.60;99.00
27978;DHT22;15314;49.248;6.968;2022-10-31T00:54:49;12.70;98.80
27978;DHT22;15314;49.248;6.968;2022-10-31T00:55:49;12.70;98.60
27978;DHT22;15314;49.248;6.968;2022-10-31T00:56:50;12.80;98.50
27978;DHT22;15314;49.248;6.968;2022-10-31T00:57:51;12.70;98.50
27978;DHT22;15314;49.248;6.968;2022-10-31T00:58:51;12.70;98.60
27978;DHT22;15314;49.248;6.968;2022-10-31T00:59:52;12.70;98.70
27978;DHT22;15314;49.248;6.968;2022-10-31T01:00:53;12.60;98.90
27978;DHT22;15314;49.248;6.968;2022-10-31T01:01:56;12.60;99.00
27978;DHT22;15314;49.248;6.968;2022-10-31T01:02:56;12.60;98.90
27978;DHT22;15314;49.248;6.968;2022-10-31T01:03:57;12.60;98.80
27978;DHT22;15314;49.248;6.968;2022-10-31T01:04:58;12.60;98.80
27978;DHT22;15314;49.248;6.968;2022-10-31T01:06:01;12.70;98.60
27978;DHT22;15314;49.248;6.968;2022-10-31T01:07:01;12.80;98.40
27978;DHT22;15314;49.248;6.968;2022-10-31T01:08:02;12.80;98.30
27978;DHT22;15314;49.248;6.968;2022-10-31T01:09:03;12.80;98.30
27978;DHT22;15314;49.248;6.968;2022-10-31T01:10:05;12.80;98.30
27978;DHT22;15314;49.248;6.968;2022-10-31T01:11:16;12.80;98.40
27978;DHT22;15314;49.248;6.968;2022-10-31T01:12:17;12.80;98.80
27978;DHT22;15314;49.248;6.968;2022-10-31T01:13:17;12.60;98.90
27978;DHT22;15314;49.248;6.968;2022-10-31T01:14:18;12.60;99.00
27978;DHT22;15314;49.248;6.968;2022-10-31T01:15:21;12.60;99.10
27978;DHT22;15314;49.248;6.968;2022-10-31T01:16:24;12.50;99.20
27978;DHT22;15314;49.248;6.968;2022-10-31T01:17:24;12.50;99.20
27978;DHT22;15314;49.248;6.968;2022-10-31T01:18:25;12.60;99.10
27978;DHT22;15314;49.248;6.968;2022-10-31T01:19:26;12.50;98.90
27978;DHT22;15314;49.248;6.968;2022-10-31T01:20:26;12.60;98.80
27978;DHT22;15314;49.248;6.968;2022-10-31T01:21:28;12.70;98.70
27978;DHT22;15314;49.248;6.968;2022-10-31T01:22:29;12.60;98.80
27978;DHT22;15314;49.248;6.968;2022-10-31T01:23:30;12.70;98.80
27978;DHT22;15314;49.248;6.968;2022-10-31T01:24:30;12.70;98.70
27978;DHT22;15314;49.248;6.968;2022-10-31T01:25:31;12.70;99.00
27978;DHT22;15314;49.248;6.968;2022-10-31T01:26:32;12.60;99.00
27978;DHT22;15314;49.248;6.968;2022-10-31T01:27:33;12.60;99.00
27978;DHT22;15314;49.248;6.968;2022-10-31T01:28:40;12.70;98.90
27978;DHT22;15314;49.248;6.968;2022-10-31T01:29:43;12.70;98.80
27978;DHT22;15314;49.248;6.968;2022-10-31T01:30:44;12.70;98.70
27978;DHT22;15314;49.248;6.968;2022-10-31T01:31:44;12.80;98.60
27978;DHT22;15314;49.248;6.968;2022-10-31T01:32:45;12.80;98.40
27978;DHT22;15314;49.248;6.968;2022-10-31T01:33:45;12.80;98.40
27978;DHT22;15314;49.248;6.968;2022-10-31T01:34:46;12.90;98.40
27978;DHT22;15314;49.248;6.968;2022-10-31T01:35:46;12.90;98.50
27978;DHT22;15314;49.248;6.968;2022-10-31T01:36:47;12.90;98.50
27978;DHT22;15314;49.248;6.968;2022-10-31T01:37:51;12.90;98.50
27978;DHT22;15314;49.248;6.968;2022-10-31T01:38:53;12.80;98.50
27978;DHT22;15314;49.248;6.968;2022-10-31T01:39:54;12.80;98.70
27978;DHT22;15314;49.248;6.968;2022-10-31T01:40:54;12.70;98.80
27978;DHT22;15314;49.248;6.968;2022-10-31T01:41:55;12.70;98.90
27978;DHT22;15314;49.248;6.968;2022-10-31T01:42:56;12.80;98.80
27978;DHT22;15314;49.248;6.968;2022-10-31T01:43:59;12.80;98.80
27978;DHT22;15314;49.248;6.968;2022-10-31T01:45:01;12.70;98.80
27978;DHT22;15314;49.248;6.968;2022-10-31T01:46:02;12.80;99.20
27978;DHT22;15314;49.248;6.968;2022-10-31T01:47:11;12.70;99.10
27978;DHT22;15314;49.248;6.968;2022-10-31T01:48:16;12.70;99.00
27978;DHT22;15314;49.248;6.968;2022-10-31T01:50:28;12.70;99.30
27978;DHT22;15314;49.248;6.968;2022-10-31T01:51:34;12.60;99.50
27978;DHT22;15314;49.248;6.968;2022-10-31T01:52:36;12.50;99.90
27978;DHT22;15314;49.248;6.968;2022-10-31T01:53:39;12.30;99.90
27978;DHT22;15314;49.248;6.968;2022-10-31T01:54:45;12.20;99.90
27978;DHT22;15314;49.248;6.968;2022-10-31T01:55:46;12.20;99.90
27978;DHT22;15314;49.248;6.968;2022-10-31T01:56:50;12.10;99.90
27978;DHT22;15314;49.248;6.968;2022-10-31T01:57:55;12.20;99.90
27978;DHT22;15314;49.248;6.968;2022-10-31T01:58:59;12.30;99.70
27978;DHT22;15314;49.248;6.968;2022-10-31T02:00:07;12.40;99.40
27978;DHT22;15314;49.248;6.968;2022-10-31T02:01:08;12.40;99.50
27978;DHT22;15314;49.248;6.968;2022-10-31T02:02:09;12.40;99.10
27978;DHT22;15314;49.248;6.968;2022-10-31T02:03:10;12.40;99.10
27978;DHT22;15314;49.248;6.968;2022-10-31T02:04:12;12.40;99.20
27978;DHT22;15314;49.248;6.968;2022-10-31T02:05:16;12.40;99.20
27978;DHT22;15314;49.248;6.968;2022-10-31T02:06:33;12.30;99.30
27978;DHT22;15314;49.248;6.968;2022-10-31T02:08:43;12.30;99.10
27978;DHT22;15314;49.248;6.968;2022-10-31T02:09:45;12.40;98.90
27978;DHT22;15314;49.248;6.968;2022-10-31T02:10:46;12.40;98.80
27978;DHT22;15314;49.248;6.968;2022-10-31T02:11:47;12.50;98.70
27978;DHT22;15314;49.248;6.968;2022-10-31T02:12:50;12.50;98.70
27978;DHT22;15314;49.248;6.968;2022-10-31T02:13:51;12.50;98.90
27978;DHT22;15314;49.248;6.968;2022-10-31T02:14:52;12.50;99.00
27978;DHT22;15314;49.248;6.968;2022-10-31T02:15:55;12.50;99.10
27978;DHT22;15314;49.248;6.968;2022-10-31T02:16:57;12.50;98.90
27978;DHT22;15314;49.248;6.968;2022-10-31T02:17:58;12.50;98.90
27978;DHT22;15314;49.248;6.968;2022-10-31T02:18:59;12.50;98.80
27978;DHT22;15314;49.248;6.968;2022-10-31T02:20:16;12.50;98.70
27978;DHT22;15314;49.248;6.968;2022-10-31T02:28:27;12.40;99.40
27978;DHT22;15314;49.248;6.968;2022-10-31T02:32:21;12.20;99.90
27978;DHT22;15314;49.248;6.968;2022-10-31T02:34:44;12.20;99.90
27978;DHT22;15314;49.248;6.968;2022-10-31T02:38:12;12.10;99.90
27978;DHT22;15314;49.248;6.968;2022-10-31T02:39:30;12.20;99.90
27978;DHT22;15314;49.248;6.968;2022-10-31T02:40:37;12.30;99.90
27978;DHT22;15314;49.248;6.968;2022-10-31T02:42:09;12.40;99.70
27978;DHT22;15314;49.248;6.968;2022-10-31T02:43:23;12.40;99.50
27978;DHT22;15314;49.248;6.968;2022-10-31T02:44:38;12.40;99.40
27978;DHT22;15314;49.248;6.968;2022-10-31T02:45:50;12.40;99.40
27978;DHT22;15314;49.248;6.968;2022-10-31T02:47:14;12.30;99.50
27978;DHT22;15314;49.248;6.968;2022-10-31T02:48:19;12.30;99.70
27978;DHT22;15314;49.248;6.968;2022-10-31T02:49:38;12.20;99.90
27978;DHT22;15314;49.248;6.968;2022-10-31T02:50:43;12.20;99.80
27978;DHT22;15314;49.248;6.968;2022-10-31T02:51:45;12.30;99.70
27978;DHT22;15314;49.248;6.968;2022-10-31T02:52:50;12.20;99.70
27978;DHT22;15314;49.248;6.968;2022-10-31T02:53:50;12.20;99.70
27978;DHT22;15314;49.248;6.968;2022-10-31T02:54:52;12.20;99.70
27978;DHT22;15314;49.248;6.968;2022-10-31T02:55:59;12.20;99.70
27978;DHT22;15314;49.248;6.968;2022-10-31T02:57:04;12.20;99.90
27978;DHT22;15314;49.248;6.968;2022-10-31T02:58:11;12.20;99.80
27978;DHT22;15314;49.248;6.968;2022-10-31T02:59:13;12.20;99.70
27978;DHT22;15314;49.248;6.968;2022-10-31T03:00:14;12.20;99.60
27978;DHT22;15314;49.248;6.968;2022-10-31T03:03:19;12.20;99.80
27978;DHT22;15314;49.248;6.968;2022-10-31T03:07:03;12.20;99.90
27978;DHT22;15314;49.248;6.968;2022-10-31T03:09:24;12.20;99.80
27978;DHT22;15314;49.248;6.968;2022-10-31T03:10:56;12.20;99.80
27978;DHT22;15314;49.248;6.968;2022-10-31T03:12:05;12.20;99.80
27978;DHT22;15314;49.248;6.968;2022-10-31T03:13:12;12.10;99.90
27978;DHT22;15314;49.248;6.968;2022-10-31T03:14:27;12.20;99.70
27978;DHT22;15314;49.248;6.968;2022-10-31T03:15:39;12.20;99.70
27978;DHT22;15314;49.248;6.968;2022-10-31T03:16:50;12.20;99.60
27978;DHT22;15314;49.248;6.968;2022-10-31T03:18:16;12.20;99.50
27978;DHT22;15314;49.248;6.968;2022-10-31T03:19:36;12.20;99.70
27978;DHT22;15314;49.248;6.968;2022-10-31T03:20:41;12.10;99.90
27978;DHT22;15314;49.248;6.968;2022-10-31T03:21:46;12.00;99.90
27978;DHT22;15314;49.248;6.968;2022-10-31T03:22:47;12.00;99.90
27978;DHT22;15314;49.248;6.968;2022-10-31T03:23:49;12.00;99.90
27978;DHT22;15314;49.248;6.968;2022-10-31T03:24:52;12.10;99.90
27978;DHT22;15314;49.248;6.968;2022-10-31T03:25:54;12.10;99.90
27978;DHT22;15314;49.248;6.968;2022-10-31T03:26:57;12.10;99.90
27978;DHT22;15314;49.248;6.968;2022-10-31T03:28:02;12.10;99.90
27978;DHT22;15314;49.248;6.968;2022-10-31T03:29:10;12.10;99.90
27978;DHT22;15314;49.248;6.968;2022-10-31T03:30:11;12.10;99.90
27978;DHT22;15314;49.248;6.968;2022-10-31T03:31:13;12.00;99.90
27978;DHT22;15314;49.248;6.968;2022-10-31T03:33:00;12.00;99.90
27978;DHT22;15314;49.248;6.968;2022-10-31T03:33:42;12.10;99.90
27978;DHT22;15314;49.248;6.968;2022-10-31T03:34:44;12.10;99.90
27978;DHT22;15314;49.248;6.968;2022-10-31T03:35:47;12.10;99.90
27978;DHT22;15314;49.248;6.968;2022-10-31T03:36:51;12.10;99.90
27978;DHT22;15314;49.248;6.968;2022-10-31T03:37:53;12.10;99.90
27978;DHT22;15314;49.248;6.968;2022-10-31T03:38:55;12.20;99.90
27978;DHT22;15314;49.248;6.968;2022-10-31T03:39:58;12.20;99.80
27978;DHT22;15314;49.248;6.968;2022-10-31T03:41:02;12.20;99.80
27978;DHT22;15314;49.248;6.968;2022-10-31T03:42:05;12.30;99.60
27978;DHT22;15314;49.248;6.968;2022-10-31T03:43:11;12.30;99.60
27978;DHT22;15314;49.248;6.968;2022-10-31T03:44:18;12.30;99.60
27978;DHT22;15314;49.248;6.968;2022-10-31T03:45:29;12.30;99.40
27978;DHT22;15314;49.248;6.968;2022-10-31T03:46:30;12.30;99.30
27978;DHT22;15314;49.248;6.968;2022-10-31T03:47:31;12.30;99.40
27978;DHT22;15314;49.248;6.968;2022-10-31T03:48:32;12.30;99.50
27978;DHT22;15314;49.248;6.968;2022-10-31T03:49:34;12.20;99.50
27978;DHT22;15314;49.248;6.968;2022-10-31T03:51:00;12.20;99.70
27978;DHT22;15314;49.248;6.968;2022-10-31T03:52:13;12.10;99.90
27978;DHT22;15314;49.248;6.968;2022-10-31T03:53:30;12.20;99.80
27978;DHT22;15314;49.248;6.968;2022-10-31T03:54:44;12.20;99.60
27978;DHT22;15314;49.248;6.968;2022-10-31T03:55:59;12.20;99.80
27978;DHT22;15314;49.248;6.968;2022-10-31T03:57:29;12.20;99.60
27978;DHT22;15314;49.248;6.968;2022-10-31T03:58:38;12.30;99.80
27978;DHT22;15314;49.248;6.968;2022-10-31T03:59:46;12.20;99.90
27978;DHT22;15314;49.248;6.968;2022-10-31T04:00:51;12.20;99.90
27978;DHT22;15314;49.248;6.968;2022-10-31T04:01:57;12.20;99.90
27978;DHT22;15314;49.248;6.968;2022-10-31T04:03:29;12.30;99.90
27978;DHT22;15314;49.248;6.968;2022-10-31T04:04:31;12.20;99.90
27978;DHT22;15314;49.248;6.968;2022-10-31T04:05:33;12.40;99.90
27978;DHT22;15314;49.248;6.968;2022-10-31T04:06:36;12.40;99.80
27978;DHT22;15314;49.248;6.968;2022-10-31T04:07:41;12.30;99.90
27978;DHT22;15314;49.248;6.968;2022-10-31T04:08:55;12.30;99.80
27978;DHT22;15314;49.248;6.968;2022-10-31T04:09:57;12.30;99.90
27978;DHT22;15314;49.248;6.968;2022-10-31T04:11:00;12.30;99.90
27978;DHT22;15314;49.248;6.968;2022-10-31T04:12:05;12.30;99.90
27978;DHT22;15314;49.248;6.968;2022-10-31T04:13:16;12.30;99.90
27978;DHT22;15314;49.248;6.968;2022-10-31T04:14:18;12.30;99.90
27978;DHT22;15314;49.248;6.968;2022-10-31T04:15:19;12.30;99.90
27978;DHT22;15314;49.248;6.968;2022-10-31T04:16:22;12.30;99.90
27978;DHT22;15314;49.248;6.968;2022-10-31T04:17:26;12.20;99.90
27978;DHT22;15314;49.248;6.968;2022-10-31T04:18:28;12.10;99.90
27978;DHT22;15314;49.248;6.968;2022-10-31T04:19:29;12.00;99.90
27978;DHT22;15314;49.248;6.968;2022-10-31T04:20:42;11.90;99.90
27978;DHT22;15314;49.248;6.968;2022-10-31T04:21:43;11.80;99.90
27978;DHT22;15314;49.248;6.968;2022-10-31T04:22:43;11.80;99.90
27978;DHT22;15314;49.248;6.968;2022-10-31T04:23:44;11.80;99.90
27978;DHT22;15314;49.248;6.968;2022-10-31T04:24:45;11.70;99.90
27978;DHT22;15314;49.248;6.968;2022-10-31T04:25:45;11.80;99.90
27978;DHT22;15314;49.248;6.968;2022-10-31T04:26:46;11.80;99.90
27978;DHT22;15314;49.248;6.968;2022-10-31T04:27:46;11.80;99.90
27978;DHT22;15314;49.248;6.968;2022-10-31T04:28:47;11.80;99.90
27978;DHT22;15314;49.248;6.968;2022-10-31T04:29:48;11.80;99.90
27978;DHT22;15314;49.248;6.968;2022-10-31T04:30:48;11.80;99.90
27978;DHT22;15314;49.248;6.968;2022-10-31T04:31:49;11.80;99.90
27978;DHT22;15314;49.248;6.968;2022-10-31T04:32:50;11.80;99.90
27978;DHT22;15314;49.248;6.968;2022-10-31T04:33:50;11.80;99.90
27978;DHT22;15314;49.248;6.968;2022-10-31T04:34:51;11.80;99.90
27978;DHT22;15314;49.248;6.968;2022-10-31T04:35:51;11.80;99.90
27978;DHT22;15314;49.248;6.968;2022-10-31T04:36:52;11.80;99.90
27978;DHT22;15314;49.248;6.968;2022-10-31T04:37:52;11.70;99.90
27978;DHT22;15314;49.248;6.968;2022-10-31T04:38:53;11.70;99.90
27978;DHT22;15314;49.248;6.968;2022-10-31T04:39:53;11.80;99.90
27978;DHT22;15314;49.248;6.968;2022-10-31T04:40:54;11.80;99.90
27978;DHT22;15314;49.248;6.968;2022-10-31T04:41:54;11.80;99.90
27978;DHT22;15314;49.248;6.968;2022-10-31T04:42:55;11.80;99.90
27978;DHT22;15314;49.248;6.968;2022-10-31T04:43:55;11.80;99.90
27978;DHT22;15314;49.248;6.968;2022-10-31T04:44:56;11.80;99.90
27978;DHT22;15314;49.248;6.968;2022-10-31T04:45:57;11.80;99.90
27978;DHT22;15314;49.248;6.968;2022-10-31T04:46:57;11.80;99.90
27978;DHT22;15314;49.248;6.968;2022-10-31T04:47:58;11.80;99.90
27978;DHT22;15314;49.248;6.968;2022-10-31T04:48:58;11.80;99.90
27978;DHT22;15314;49.248;6.968;2022-10-31T04:49:59;11.80;99.90
27978;DHT22;15314;49.248;6.968;2022-10-31T04:51:00;11.80;99.90
27978;DHT22;15314;49.248;6.968;2022-10-31T04:52:01;11.80;99.90
27978;DHT22;15314;49.248;6.968;2022-10-31T04:53:02;11.80;99.90
27978;DHT22;15314;49.248;6.968;2022-10-31T04:54:02;11.80;99.90
27978;DHT22;15314;49.248;6.968;2022-10-31T04:55:03;11.90;99.90
27978;DHT22;15314;49.248;6.968;2022-10-31T04:56:04;11.80;99.90
27978;DHT22;15314;49.248;6.968;2022-10-31T04:57:05;11.80;99.90
27978;DHT22;15314;49.248;6.968;2022-10-31T04:58:05;11.70;99.90
27978;DHT22;15314;49.248;6.968;2022-10-31T04:59:06;11.80;99.90
27978;DHT22;15314;49.248;6.968;2022-10-31T05:00:07;11.80;99.90
27978;DHT22;15314;49.248;6.968;2022-10-31T05:01:08;11.80;99.90
27978;DHT22;15314;49.248;6.968;2022-10-31T05:02:08;11.80;99.90
27978;DHT22;15314;49.248;6.968;2022-10-31T05:03:09;11.70;99.90
27978;DHT22;15314;49.248;6.968;2022-10-31T05:04:10;11.70;99.90
27978;DHT22;15314;49.248;6.968;2022-10-31T05:05:11;11.70;99.90
27978;DHT22;15314;49.248;6.968;2022-10-31T05:06:12;11.70;99.90
27978;DHT22;15314;49.248;6.968;2022-10-31T05:07:12;11.70;99.90
27978;DHT22;15314;49.248;6.968;2022-10-31T05:08:13;11.70;99.90
27978;DHT22;15314;49.248;6.968;2022-10-31T05:09:14;11.70;99.90
27978;DHT22;15314;49.248;6.968;2022-10-31T05:10:18;11.80;99.90
27978;DHT22;15314;49.248;6.968;2022-10-31T05:11:19;11.80;99.90
27978;DHT22;15314;49.248;6.968;2022-10-31T05:12:19;11.80;99.90
27978;DHT22;15314;49.248;6.968;2022-10-31T05:13:20;11.80;99.90
27978;DHT22;15314;49.248;6.968;2022-10-31T05:14:20;11.80;99.90
27978;DHT22;15314;49.248;6.968;2022-10-31T05:15:22;11.70;99.90
27978;DHT22;15314;49.248;6.968;2022-10-31T05:16:23;11.80;99.90
27978;DHT22;15314;49.248;6.968;2022-10-31T05:17:24;11.70;99.90
27978;DHT22;15314;49.248;6.968;2022-10-31T05:18:24;11.80;99.90
27978;DHT22;15314;49.248;6.968;2022-10-31T05:19:25;11.80;99.90
27978;DHT22;15314;49.248;6.968;2022-10-31T05:20:29;11.80;99.90
27978;DHT22;15314;49.248;6.968;2022-10-31T05:21:30;11.80;99.90
27978;DHT22;15314;49.248;6.968;2022-10-31T05:22:30;11.80;99.90
27978;DHT22;15314;49.248;6.968;2022-10-31T05:23:31;11.80;99.90
27978;DHT22;15314;49.248;6.968;2022-10-31T05:24:31;11.80;99.90
27978;DHT22;15314;49.248;6.968;2022-10-31T05:25:32;11.80;99.90
27978;DHT22;15314;49.248;6.968;2022-10-31T05:26:32;11.80;99.90
27978;DHT22;15314;49.248;6.968;2022-10-31T05:27:33;11.70;99.90
27978;DHT22;15314;49.248;6.968;2022-10-31T05:28:33;11.70;99.90
27978;DHT22;15314;49.248;6.968;2022-10-31T05:29:34;11.70;99.90
27978;DHT22;15314;49.248;6.968;2022-10-31T05:30:35;11.70;99.90
27978;DHT22;15314;49.248;6.968;2022-10-31T05:31:35;11.70;99.90
27978;DHT22;15314;49.248;6.968;2022-10-31T05:32:43;11.70;99.90
27978;DHT22;15314;49.248;6.968;2022-10-31T05:33:44;11.70;99.90
27978;DHT22;15314;49.248;6.968;2022-10-31T05:34:45;11.70;99.90
27978;DHT22;15314;49.248;6.968;2022-10-31T05:35:46;11.70;99.90
27978;DHT22;15314;49.248;6.968;2022-10-31T05:36:46;11.80;99.90
27978;DHT22;15314;49.248;6.968;2022-10-31T05:37:47;11.80;99.90
27978;DHT22;15314;49.248;6.968;2022-10-31T05:38:48;11.80;99.90
27978;DHT22;15314;49.248;6.968;2022-10-31T05:39:48;11.80;99.90
27978;DHT22;15314;49.248;6.968;2022-10-31T05:40:49;11.90;99.90
27978;DHT22;15314;49.248;6.968;2022-10-31T05:41:49;11.90;99.90
27978;DHT22;15314;49.248;6.968;2022-10-31T05:42:54;11.80;99.90
27978;DHT22;15314;49.248;6.968;2022-10-31T05:43:54;11.90;99.90
27978;DHT22;15314;49.248;6.968;2022-10-31T05:44:55;11.90;99.90
27978;DHT22;15314;49.248;6.968;2022-10-31T05:45:56;11.90;99.90
27978;DHT22;15314;49.248;6.968;2022-10-31T05:46:57;11.90;99.90
27978;DHT22;15314;49.248;6.968;2022-10-31T05:47:59;11.90;99.90
27978;DHT22;15314;49.248;6.968;2022-10-31T05:49:00;11.90;99.90
27978;DHT22;15314;49.248;6.968;2022-10-31T05:50:01;11.90;99.90
27978;DHT22;15314;49.248;6.968;2022-10-31T05:51:01;11.90;99.90
27978;DHT22;15314;49.248;6.968;2022-10-31T05:52:02;11.90;99.90
27978;DHT22;15314;49.248;6.968;2022-10-31T05:53:04;11.90;99.90
27978;DHT22;15314;49.248;6.968;2022-10-31T05:54:05;11.80;99.90
27978;DHT22;15314;49.248;6.968;2022-10-31T05:55:06;11.80;99.90
27978;DHT22;15314;49.248;6.968;2022-10-31T05:56:07;11.80;99.90
27978;DHT22;15314;49.248;6.968;2022-10-31T05:57:07;11.80;99.90
27978;DHT22;15314;49.248;6.968;2022-10-31T05:58:08;11.70;99.90
27978;DHT22;15314;49.248;6.968;2022-10-31T05:59:09;11.60;99.90
27978;DHT22;15314;49.248;6.968;2022-10-31T06:00:10;11.70;99.90
27978;DHT22;15314;49.248;6.968;2022-10-31T06:01:11;11.60;99.90
27978;DHT22;15314;49.248;6.968;2022-10-31T06:02:11;11.60;99.90
27978;DHT22;15314;49.248;6.968;2022-10-31T06:03:12;11.60;99.90
27978;DHT22;15314;49.248;6.968;2022-10-31T06:04:12;11.60;99.90
27978;DHT22;15314;49.248;6.968;2022-10-31T06:05:13;11.60;99.90
27978;DHT22;15314;49.248;6.968;2022-10-31T06:06:13;11.60;99.90
27978;DHT22;15314;49.248;6.968;2022-10-31T06:07:14;11.60;99.90
27978;DHT22;15314;49.248;6.968;2022-10-31T06:08:15;11.70;99.90
27978;DHT22;15314;49.248;6.968;2022-10-31T06:09:15;11.70;99.90
27978;DHT22;15314;49.248;6.968;2022-10-31T06:10:16;11.70;99.90
27978;DHT22;15314;49.248;6.968;2022-10-31T06:11:17;11.70;99.90
27978;DHT22;15314;49.248;6.968;2022-10-31T06:12:17;11.70;99.90
27978;DHT22;15314;49.248;6.968;2022-10-31T06:13:18;11.80;99.90
27978;DHT22;15314;49.248;6.968;2022-10-31T06:14:18;11.80;99.90
27978;DHT22;15314;49.248;6.968;2022-10-31T06:15:19;11.80;99.90
27978;DHT22;15314;49.248;6.968;2022-10-31T06:16:19;11.80;99.90
27978;DHT22;15314;49.248;6.968;2022-10-31T06:17:20;11.80;99.90
27978;DHT22;15314;49.248;6.968;2022-10-31T06:18:20;11.80;99.90
27978;DHT22;15314;49.248;6.968;2022-10-31T06:19:21;11.80;99.90
27978;DHT22;15314;49.248;6.968;2022-10-31T06:20:22;11.80;99.90
27978;DHT22;15314;49.248;6.968;2022-10-31T06:21:23;11.80;99.90
27978;DHT22;15314;49.248;6.968;2022-10-31T06:22:23;11.80;99.90
27978;DHT22;15314;49.248;6.968;2022-10-31T06:23:24;11.70;99.90
27978;DHT22;15314;49.248;6.968;2022-10-31T06:24:24;11.80;99.90
27978;DHT22;15314;49.248;6.968;2022-10-31T06:25:25;11.80;99.90
27978;DHT22;15314;49.248;6.968;2022-10-31T06:26:25;11.90;99.90
27978;DHT22;15314;49.248;6.968;2022-10-31T06:27:26;12.00;99.90
27978;DHT22;15314;49.248;6.968;2022-10-31T06:28:27;12.00;99.90
27978;DHT22;15314;49.248;6.968;2022-10-31T06:29:27;12.00;99.90
27978;DHT22;15314;49.248;6.968;2022-10-31T06:30:28;12.00;99.90
27978;DHT22;15314;49.248;6.968;2022-10-31T06:31:29;12.00;99.90
27978;DHT22;15314;49.248;6.968;2022-10-31T06:32:29;12.00;99.90
27978;DHT22;15314;49.248;6.968;2022-10-31T06:33:30;12.00;99.90
27978;DHT22;15314;49.248;6.968;2022-10-31T06:34:31;12.10;99.90
27978;DHT22;15314;49.248;6.968;2022-10-31T06:35:31;12.00;99.90
27978;DHT22;15314;49.248;6.968;2022-10-31T06:36:32;12.10;99.90
27978;DHT22;15314;49.248;6.968;2022-10-31T06:37:33;12.10;99.90
27978;DHT22;15314;49.248;6.968;2022-10-31T06:38:33;12.10;99.90
27978;DHT22;15314;49.248;6.968;2022-10-31T06:39:34;12.10;99.90
27978;DHT22;15314;49.248;6.968;2022-10-31T06:40:35;12.20;99.90
27978;DHT22;15314;49.248;6.968;2022-10-31T06:41:35;12.10;99.90
27978;DHT22;15314;49.248;6.968;2022-10-31T06:42:36;12.10;99.90
27978;DHT22;15314;49.248;6.968;2022-10-31T06:43:37;12.10;99.90
27978;DHT22;15314;49.248;6.968;2022-10-31T06:44:37;12.10;99.90
27978;DHT22;15314;49.248;6.968;2022-10-31T06:45:38;12.00;99.90
27978;DHT22;15314;49.248;6.968;2022-10-31T06:46:39;12.00;99.90
27978;DHT22;15314;49.248;6.968;2022-10-31T06:47:39;12.00;99.90
27978;DHT22;15314;49.248;6.968;2022-10-31T06:48:41;12.00;99.90
27978;DHT22;15314;49.248;6.968;2022-10-31T06:49:42;12.00;99.90
27978;DHT22;15314;49.248;6.968;2022-10-31T06:50:42;12.00;99.90
27978;DHT22;15314;49.248;6.968;2022-10-31T06:51:43;12.00;99.90
27978;DHT22;15314;49.248;6.968;2022-10-31T06:52:49;12.10;99.90
27978;DHT22;15314;49.248;6.968;2022-10-31T06:53:49;12.20;99.90
27978;DHT22;15314;49.248;6.968;2022-10-31T06:54:50;12.20;99.90
27978;DHT22;15314;49.248;6.968;2022-10-31T06:55:50;12.30;99.90
27978;DHT22;15314;49.248;6.968;2022-10-31T06:56:51;12.30;99.90
27978;DHT22;15314;49.248;6.968;2022-10-31T06:57:55;12.40;99.90
27978;DHT22;15314;49.248;6.968;2022-10-31T06:58:56;12.40;99.90